sensor_id;sensor_type;location;lat;lon;timestamp;pressure;altitude;pressure_sealevel;temperature;humidity
70589;BME280;58152;49.202;18.744;2023-05-22T13:50:06;97126.34;;;24.39;45.04
70589;BME280;58152;49.202;18.744;2023-05-22T13:52:33;97133.16;;;24.33;44.22
70589;BME280;58152;49.202;18.744;2023-05-22T13:58:37;97111.00;;;24.31;42.61
70589;BME280;58152;49.202;18.744;2023-05-22T14:07:51;97110.84;;;24.67;41.18
70589;BME280;58152;49.202;18.744;2023-05-22T14:21:18;97122.38;;;25.18;41.76
70589;BME280;58152;49.202;18.744;2023-05-22T14:26:43;97117.34;;;25.39;41.27
70589;BME280;58152;49.202;18.744;2023-05-22T14:29:17;97107.09;;;25.43;40.92
70589;BME280;58152;49.202;18.744;2023-05-22T14:31:50;97114.31;;;25.67;38.13
70589;BME280;58152;49.202;18.744;2023-05-22T14:34:34;97099.53;;;25.71;37.28
70589;BME280;58152;49.202;18.744;2023-05-22T14:36:59;97107.25;;;25.90;40.41
70589;BME280;58152;49.202;18.744;2023-05-22T14:39:27;97107.25;;;25.82;40.04
70589;BME280;58152;49.202;18.744;2023-05-22T14:41:55;97103.34;;;26.01;38.95
70589;BME280;58152;49.202;18.744;2023-05-22T14:44:23;97092.38;;;26.19;39.75
70589;BME280;58152;49.202;18.744;2023-05-22T14:46:58;97095.16;;;26.42;39.43
70589;BME280;58152;49.202;18.744;2023-05-22T14:49:29;97091.09;;;26.54;38.64
70589;BME280;58152;49.202;18.744;2023-05-22T14:53:00;97085.97;;;26.67;36.96
70589;BME280;58152;49.202;18.744;2023-05-22T14:55:11;97101.22;;;26.75;38.57
70589;BME280;58152;49.202;18.744;2023-05-22T14:57:39;97084.91;;;26.76;38.56
70589;BME280;58152;49.202;18.744;2023-05-22T15:00:05;97093.41;;;26.88;39.08
70589;BME280;58152;49.202;18.744;2023-05-22T15:02:32;97089.00;;;26.95;39.20
70589;BME280;58152;49.202;18.744;2023-05-22T15:04:58;97089.94;;;27.02;38.78
70589;BME280;58152;49.202;18.744;2023-05-22T15:07:46;97086.59;;;27.00;37.94
70589;BME280;58152;49.202;18.744;2023-05-22T15:10:31;97085.28;;;26.96;38.08
70589;BME280;58152;49.202;18.744;2023-05-22T15:12:57;97073.63;;;26.81;39.22
70589;BME280;58152;49.202;18.744;2023-05-22T15:16:05;97090.06;;;26.86;37.40
70589;BME280;58152;49.202;18.744;2023-05-22T15:22:17;97077.41;;;26.64;38.68
70589;BME280;58152;49.202;18.744;2023-05-22T15:24:47;97075.63;;;26.48;39.10
70589;BME280;58152;49.202;18.744;2023-05-22T15:27:16;97077.88;;;26.36;39.04
70589;BME280;58152;49.202;18.744;2023-05-22T15:29:52;97073.72;;;26.25;39.52
70589;BME280;58152;49.202;18.744;2023-05-22T15:32:40;97072.91;;;26.17;39.66
70589;BME280;58152;49.202;18.744;2023-05-22T15:35:06;97068.06;;;26.04;39.74
70589;BME280;58152;49.202;18.744;2023-05-22T15:37:31;97064.41;;;25.97;39.76
70589;BME280;58152;49.202;18.744;2023-05-22T15:40:02;97049.81;;;25.83;40.24
70589;BME280;58152;49.202;18.744;2023-05-22T15:42:28;97066.78;;;25.83;40.55
70589;BME280;58152;49.202;18.744;2023-05-22T15:44:57;97063.13;;;25.76;40.05
70589;BME280;58152;49.202;18.744;2023-05-22T15:47:23;97046.66;;;25.71;40.35
70589;BME280;58152;49.202;18.744;2023-05-22T15:49:51;97052.03;;;25.71;40.70
70589;BME280;58152;49.202;18.744;2023-05-22T15:52:17;97049.34;;;25.63;41.19
70589;BME280;58152;49.202;18.744;2023-05-22T15:54:42;97063.28;;;25.58;41.42
70589;BME280;58152;49.202;18.744;2023-05-22T15:57:08;97049.03;;;25.50;41.57
70589;BME280;58152;49.202;18.744;2023-05-22T15:59:43;97053.91;;;25.38;40.46
70589;BME280;58152;49.202;18.744;2023-05-22T16:02:11;97047.03;;;25.19;41.79
70589;BME280;58152;49.202;18.744;2023-05-22T16:04:40;97052.25;;;25.13;42.26
70589;BME280;58152;49.202;18.744;2023-05-22T16:07:05;97053.22;;;25.03;42.38
70589;BME280;58152;49.202;18.744;2023-05-22T16:09:34;97056.09;;;25.02;42.45
70589;BME280;58152;49.202;18.744;2023-05-22T16:12:03;97068.31;;;24.96;42.71
70589;BME280;58152;49.202;18.744;2023-05-22T16:14:40;97063.44;;;24.92;42.94
70589;BME280;58152;49.202;18.744;2023-05-22T16:17:11;97065.63;;;24.88;43.16
70589;BME280;58152;49.202;18.744;2023-05-22T16:19:36;97062.59;;;24.75;42.73
70589;BME280;58152;49.202;18.744;2023-05-22T16:22:02;97066.91;;;24.68;43.23
70589;BME280;58152;49.202;18.744;2023-05-22T16:24:27;97079.31;;;24.61;43.26
70589;BME280;58152;49.202;18.744;2023-05-22T16:26:55;97083.16;;;24.58;43.53
70589;BME280;58152;49.202;18.744;2023-05-22T16:29:20;97073.72;;;24.46;43.68
70589;BME280;58152;49.202;18.744;2023-05-22T16:31:46;97085.81;;;24.50;43.71
70589;BME280;58152;49.202;18.744;2023-05-22T16:34:11;97080.44;;;24.50;43.72
70589;BME280;58152;49.202;18.744;2023-05-22T16:36:37;97083.47;;;24.47;44.01
70589;BME280;58152;49.202;18.744;2023-05-22T16:39:02;97077.25;;;24.46;44.47
70589;BME280;58152;49.202;18.744;2023-05-22T16:41:28;97080.94;;;24.45;44.23
70589;BME280;58152;49.202;18.744;2023-05-22T16:43:54;97083.63;;;24.45;44.10
70589;BME280;58152;49.202;18.744;2023-05-22T16:46:19;97076.06;;;24.41;44.19
70589;BME280;58152;49.202;18.744;2023-05-22T16:48:45;97090.16;;;24.43;44.18
70589;BME280;58152;49.202;18.744;2023-05-22T16:51:10;97085.28;;;24.38;44.41
70589;BME280;58152;49.202;18.744;2023-05-22T16:53:36;97087.97;;;24.38;44.10
70589;BME280;58152;49.202;18.744;2023-05-22T16:56:03;97087.13;;;24.38;44.37
70589;BME280;58152;49.202;18.744;2023-05-22T17:04:37;97097.84;;;24.38;43.88
70589;BME280;58152;49.202;18.744;2023-05-22T17:07:06;97097.97;;;24.36;44.80
70589;BME280;58152;49.202;18.744;2023-05-22T17:09:35;97105.34;;;24.34;44.78
70589;BME280;58152;49.202;18.744;2023-05-22T17:12:00;97100.28;;;24.31;44.45
70589;BME280;58152;49.202;18.744;2023-05-22T17:14:26;97090.75;;;24.28;44.10
70589;BME280;58152;49.202;18.744;2023-05-22T17:16:51;97096.25;;;24.27;44.68
70589;BME280;58152;49.202;18.744;2023-05-22T17:19:18;97106.34;;;24.33;44.92
70589;BME280;58152;49.202;18.744;2023-05-22T17:21:56;97101.47;;;24.28;44.58
70589;BME280;58152;49.202;18.744;2023-05-22T17:24:21;97102.31;;;24.29;44.87
70589;BME280;58152;49.202;18.744;2023-05-22T17:26:47;97098.97;;;24.35;44.61
70589;BME280;58152;49.202;18.744;2023-05-22T17:29:13;97092.44;;;24.29;44.38
70589;BME280;58152;49.202;18.744;2023-05-22T17:31:41;97102.31;;;24.29;44.35
70589;BME280;58152;49.202;18.744;2023-05-22T17:36:49;97084.66;;;24.18;44.88
70589;BME280;58152;49.202;18.744;2023-05-22T17:39:14;97087.50;;;24.17;45.01
70589;BME280;58152;49.202;18.744;2023-05-22T17:41:40;97093.34;;;24.12;44.70
70589;BME280;58152;49.202;18.744;2023-05-22T17:44:05;97089.31;;;24.08;45.15
70589;BME280;58152;49.202;18.744;2023-05-22T17:46:39;97087.81;;;24.05;45.19
70589;BME280;58152;49.202;18.744;2023-05-22T17:49:05;97089.97;;;24.02;45.19
70589;BME280;58152;49.202;18.744;2023-05-22T17:51:30;97075.38;;;23.96;45.71
70589;BME280;58152;49.202;18.744;2023-05-22T17:53:56;97087.06;;;23.95;46.01
70589;BME280;58152;49.202;18.744;2023-05-22T17:56:23;97078.84;;;23.89;45.64
70589;BME280;58152;49.202;18.744;2023-05-22T17:58:48;97090.03;;;23.84;45.33
70589;BME280;58152;49.202;18.744;2023-05-22T18:01:15;97082.78;;;23.76;45.61
70589;BME280;58152;49.202;18.744;2023-05-22T18:03:42;97076.53;;;23.68;45.94
70589;BME280;58152;49.202;18.744;2023-05-22T18:06:08;97073.19;;;23.66;46.55
70589;BME280;58152;49.202;18.744;2023-05-22T18:08:34;97079.81;;;23.62;46.40
70589;BME280;58152;49.202;18.744;2023-05-22T18:10:59;97076.47;;;23.59;46.71
70589;BME280;58152;49.202;18.744;2023-05-22T18:13:25;97084.25;;;23.53;46.54
70589;BME280;58152;49.202;18.744;2023-05-22T18:15:50;97089.25;;;23.48;46.72
70589;BME280;58152;49.202;18.744;2023-05-22T18:18:16;97082.16;;;23.39;46.90
70589;BME280;58152;49.202;18.744;2023-05-22T18:20:42;97091.31;;;23.36;47.13
70589;BME280;58152;49.202;18.744;2023-05-22T18:23:08;97083.09;;;23.29;47.67
70589;BME280;58152;49.202;18.744;2023-05-22T18:25:48;97100.28;;;23.27;47.82
70589;BME280;58152;49.202;18.744;2023-05-22T18:28:13;97082.09;;;23.13;47.55
70589;BME280;58152;49.202;18.744;2023-05-22T18:30:39;97095.66;;;23.11;47.86
70589;BME280;58152;49.202;18.744;2023-05-22T18:33:04;97092.59;;;23.06;48.24
70589;BME280;58152;49.202;18.744;2023-05-22T18:35:58;97092.59;;;23.06;48.68
70589;BME280;58152;49.202;18.744;2023-05-22T18:38:26;97086.50;;;22.96;48.47
70589;BME280;58152;49.202;18.744;2023-05-22T18:40:52;97101.38;;;22.98;48.64
70589;BME280;58152;49.202;18.744;2023-05-22T18:43:20;97094.09;;;22.91;48.65
70589;BME280;58152;49.202;18.744;2023-05-22T18:45:53;97095.81;;;22.92;48.78
70589;BME280;58152;49.202;18.744;2023-05-22T18:48:21;97095.16;;;22.80;48.94
70589;BME280;58152;49.202;18.744;2023-05-22T18:50:47;97091.41;;;22.73;48.90
70589;BME280;58152;49.202;18.744;2023-05-22T18:53:15;97101.25;;;22.72;48.87
70589;BME280;58152;49.202;18.744;2023-05-22T18:55:40;97097.50;;;22.65;49.16
70589;BME280;58152;49.202;18.744;2023-05-22T18:58:06;97102.03;;;22.65;49.23
70589;BME280;58152;49.202;18.744;2023-05-22T19:00:31;97108.22;;;22.65;49.32
70589;BME280;58152;49.202;18.744;2023-05-22T19:02:57;97104.69;;;22.65;49.25
70589;BME280;58152;49.202;18.744;2023-05-22T19:05:22;97107.81;;;22.60;49.26
70589;BME280;58152;49.202;18.744;2023-05-22T19:07:50;97112.78;;;22.55;49.42
70589;BME280;58152;49.202;18.744;2023-05-22T19:10:16;97111.53;;;22.49;49.49
70589;BME280;58152;49.202;18.744;2023-05-22T19:12:42;97110.19;;;22.36;49.39
70589;BME280;58152;49.202;18.744;2023-05-22T19:15:07;97113.63;;;22.28;49.78
70589;BME280;58152;49.202;18.744;2023-05-22T19:17:42;97115.75;;;22.24;49.65
70589;BME280;58152;49.202;18.744;2023-05-22T19:20:12;97114.97;;;22.14;49.70
70589;BME280;58152;49.202;18.744;2023-05-22T19:22:41;97110.06;;;22.00;49.93
70589;BME280;58152;49.202;18.744;2023-05-22T19:25:39;97127.50;;;22.04;50.30
70589;BME280;58152;49.202;18.744;2023-05-22T19:28:11;97118.53;;;21.95;50.30
70589;BME280;58152;49.202;18.744;2023-05-22T19:30:37;97122.88;;;21.96;50.38
70589;BME280;58152;49.202;18.744;2023-05-22T19:33:13;97120.34;;;21.85;50.34
70589;BME280;58152;49.202;18.744;2023-05-22T19:35:49;97122.78;;;21.78;50.19
70589;BME280;58152;49.202;18.744;2023-05-22T19:38:15;97115.63;;;21.69;50.43
70589;BME280;58152;49.202;18.744;2023-05-22T19:40:44;97122.97;;;21.67;51.05
70589;BME280;58152;49.202;18.744;2023-05-22T19:43:15;97105.97;;;21.59;51.00
70589;BME280;58152;49.202;18.744;2023-05-22T19:45:41;97118.06;;;21.63;51.12
70589;BME280;58152;49.202;18.744;2023-05-22T19:48:14;97118.31;;;21.60;51.26
70589;BME280;58152;49.202;18.744;2023-05-22T19:50:43;97122.41;;;21.54;50.98
70589;BME280;58152;49.202;18.744;2023-05-22T19:53:09;97111.34;;;21.49;51.30
70589;BME280;58152;49.202;18.744;2023-05-22T19:55:34;97116.78;;;21.47;51.26
70589;BME280;58152;49.202;18.744;2023-05-22T19:57:59;97109.53;;;21.40;51.11
70589;BME280;58152;49.202;18.744;2023-05-22T20:00:30;97117.78;;;21.27;51.19
70589;BME280;58152;49.202;18.744;2023-05-22T20:02:58;97119.75;;;21.25;51.38
70589;BME280;58152;49.202;18.744;2023-05-22T20:05:23;97129.72;;;21.23;51.50
70589;BME280;58152;49.202;18.744;2023-05-22T20:07:50;97129.56;;;21.15;51.55
70589;BME280;58152;49.202;18.744;2023-05-22T20:10:19;97123.41;;;21.14;52.00
70589;BME280;58152;49.202;18.744;2023-05-22T20:12:44;97141.09;;;21.15;51.83
70589;BME280;58152;49.202;18.744;2023-05-22T20:15:10;97138.00;;;21.10;51.78
70589;BME280;58152;49.202;18.744;2023-05-22T20:17:45;97134.91;;;20.95;52.36
70589;BME280;58152;49.202;18.744;2023-05-22T20:20:18;97134.59;;;20.89;52.07
70589;BME280;58152;49.202;18.744;2023-05-22T20:22:44;97133.91;;;20.77;52.19
70589;BME280;58152;49.202;18.744;2023-05-22T20:25:09;97130.09;;;20.70;52.45
70589;BME280;58152;49.202;18.744;2023-05-22T20:27:36;97134.44;;;20.71;52.40
70589;BME280;58152;49.202;18.744;2023-05-22T20:30:01;97129.25;;;20.69;52.47
70589;BME280;58152;49.202;18.744;2023-05-22T20:32:29;97131.22;;;20.67;52.50
70589;BME280;58152;49.202;18.744;2023-05-22T20:34:56;97132.91;;;20.68;52.47
70589;BME280;58152;49.202;18.744;2023-05-22T20:44:50;97133.41;;;20.52;52.63
70589;BME280;58152;49.202;18.744;2023-05-22T20:47:34;97120.44;;;20.38;52.55
70589;BME280;58152;49.202;18.744;2023-05-22T20:50:40;97146.84;;;20.41;52.94
70589;BME280;58152;49.202;18.744;2023-05-22T20:53:33;97132.22;;;20.26;52.58
70589;BME280;58152;49.202;18.744;2023-05-22T20:59:08;97127.78;;;20.05;53.09
70589;BME280;58152;49.202;18.744;2023-05-22T21:05:26;97117.97;;;20.06;53.32
70589;BME280;58152;49.202;18.744;2023-05-22T21:07:56;97130.88;;;20.11;53.18
70589;BME280;58152;49.202;18.744;2023-05-22T21:10:24;97127.91;;;20.04;53.07
70589;BME280;58152;49.202;18.744;2023-05-22T21:12:50;97133.09;;;20.05;53.17
70589;BME280;58152;49.202;18.744;2023-05-22T21:18:10;97136.69;;;19.95;53.29
70589;BME280;58152;49.202;18.744;2023-05-22T21:20:47;97137.63;;;19.84;53.58
70589;BME280;58152;49.202;18.744;2023-05-22T21:23:18;97146.72;;;19.82;53.42
70589;BME280;58152;49.202;18.744;2023-05-22T21:36:48;97146.19;;;19.46;54.60
70589;BME280;58152;49.202;18.744;2023-05-22T21:40:03;97150.66;;;19.45;54.74
70589;BME280;58152;49.202;18.744;2023-05-22T21:43:03;97141.03;;;19.33;54.71
70589;BME280;58152;49.202;18.744;2023-05-22T21:50:25;97150.56;;;19.15;54.64
70589;BME280;58152;49.202;18.744;2023-05-22T21:53:45;97159.78;;;19.11;54.61
70589;BME280;58152;49.202;18.744;2023-05-22T22:10:19;97156.06;;;19.02;54.67
70589;BME280;58152;49.202;18.744;2023-05-22T22:13:15;97148.34;;;18.99;55.14
70589;BME280;58152;49.202;18.744;2023-05-22T22:24:08;97144.91;;;18.65;55.44
70589;BME280;58152;49.202;18.744;2023-05-22T22:30:42;97141.91;;;18.58;56.09
70589;BME280;58152;49.202;18.744;2023-05-22T22:40:54;97151.22;;;18.52;55.50
70589;BME280;58152;49.202;18.744;2023-05-22T22:46:32;97149.81;;;18.37;55.50
70589;BME280;58152;49.202;18.744;2023-05-22T22:48:58;97155.81;;;18.39;55.62
70589;BME280;58152;49.202;18.744;2023-05-22T22:51:26;97148.81;;;18.27;55.60
70589;BME280;58152;49.202;18.744;2023-05-22T22:53:52;97146.31;;;18.25;55.70
70589;BME280;58152;49.202;18.744;2023-05-22T22:56:17;97142.19;;;18.21;55.70
70589;BME280;58152;49.202;18.744;2023-05-22T22:58:43;97140.88;;;18.16;55.81
70589;BME280;58152;49.202;18.744;2023-05-22T23:01:08;97149.56;;;18.18;55.80
70589;BME280;58152;49.202;18.744;2023-05-22T23:03:36;97136.53;;;18.15;55.98
70589;BME280;58152;49.202;18.744;2023-05-22T23:06:02;97136.91;;;18.10;55.91
70589;BME280;58152;49.202;18.744;2023-05-22T23:08:34;97146.06;;;18.06;56.15
70589;BME280;58152;49.202;18.744;2023-05-22T23:11:02;97144.72;;;18.00;56.19
70589;BME280;58152;49.202;18.744;2023-05-22T23:13:27;97149.81;;;18.03;56.31
70589;BME280;58152;49.202;18.744;2023-05-22T23:15:53;97154.63;;;17.98;56.31
70589;BME280;58152;49.202;18.744;2023-05-22T23:18:18;97143.41;;;17.95;56.40
70589;BME280;58152;49.202;18.744;2023-05-22T23:20:44;97146.31;;;17.92;56.45
70589;BME280;58152;49.202;18.744;2023-05-22T23:23:10;97150.66;;;17.93;56.51
70589;BME280;58152;49.202;18.744;2023-05-22T23:25:36;97144.13;;;17.86;56.48
70589;BME280;58152;49.202;18.744;2023-05-22T23:28:01;97150.41;;;17.73;56.37
70589;BME280;58152;49.202;18.744;2023-05-22T23:30:26;97141.19;;;17.66;56.61
70589;BME280;58152;49.202;18.744;2023-05-22T23:32:52;97142.25;;;17.64;56.65
70589;BME280;58152;49.202;18.744;2023-05-22T23:35:17;97145.88;;;17.63;56.94
70589;BME280;58152;49.202;18.744;2023-05-22T23:37:43;97140.06;;;17.58;56.84
70589;BME280;58152;49.202;18.744;2023-05-22T23:40:08;97149.72;;;17.59;56.95
70589;BME280;58152;49.202;18.744;2023-05-22T23:42:34;97148.16;;;17.56;57.06
70589;BME280;58152;49.202;18.744;2023-05-22T23:45:01;97141.63;;;17.49;57.04
70589;BME280;58152;49.202;18.744;2023-05-22T23:47:28;97135.47;;;17.37;57.24
70589;BME280;58152;49.202;18.744;2023-05-22T23:49:53;97143.53;;;17.36;57.18
70589;BME280;58152;49.202;18.744;2023-05-22T23:52:21;97138.97;;;17.38;57.20
70589;BME280;58152;49.202;18.744;2023-05-22T23:54:46;97138.97;;;17.38;57.24
70589;BME280;58152;49.202;18.744;2023-05-22T23:57:11;97131.34;;;17.33;57.26
70589;BME280;58152;49.202;18.744;2023-05-22T23:59:37;97135.19;;;17.29;57.27
